Time;durP1;ratioP1;P1;durP2;ratioP2;P2;SDS_P1;SDS_P2;PMS_P1;PMS_P2;Temp;Humidity;BMP_temperature;BMP_pressure;BME280_temperature;BME280_humidity;BME280_pressure;Samples;Min_cycle;Max_cycle;Signal;HPM_P1;HPM_P2
2023/12/16 08:34:59;;;;;;;;;;;;;;;0.72;98.56;101702.91;107570;1281;22454;-55
2023/12/16 08:37:26;;;;;;;;;;;;;;;0.72;99.00;101705.14;107023;1275;22536;-48
2023/12/16 08:39:53;;;;;;;;;;;;;;;0.77;99.32;101708.73;107078;1274;25358;-49
2023/12/16 08:42:19;;;;;;;;;;;;;;;0.87;99.69;101711.39;107609;1268;22560;-48
2023/12/16 08:44:47;;;;;;;;;;;;;;;0.97;99.55;101708.91;107102;1272;22649;-54
2023/12/16 08:47:13;;;;;;;;;;;;;;;1.04;99.47;101706.77;107607;1268;24240;-48
2023/12/16 08:49:43;;;;;;;;;;;;;;;1.05;98.87;101698.25;108858;1268;22525;-54
2023/12/16 08:52:09;;;;;;;;;;;;;;;1.01;99.13;101696.43;108827;1268;24334;-46
2023/12/16 08:54:39;;;;;;;;;;;;;;;0.94;99.11;101698.05;109609;1277;22570;-53
2023/12/16 08:57:06;;;;;;;;;;;;;;;0.86;99.57;101698.11;109905;1273;22426;-58
2023/12/16 08:59:32;;;;;;;;;;;;;;;0.79;99.43;101701.80;109959;1273;22850;-54
2023/12/16 09:01:59;;;;;;;;;;;;;;;0.71;99.57;101706.11;109477;1268;23194;-48
2023/12/16 09:04:25;;;;;;;;;;;;;;;0.67;100.00;101707.38;107607;1271;22542;-47
2023/12/16 09:06:52;;;;;;;;;;;;;;;0.64;100.00;101710.16;107423;1268;22522;-55
2023/12/16 09:09:19;;;;;;;;;;;;;;;0.63;100.00;101708.52;107432;1271;22510;-55
2023/12/16 09:11:45;;;;;;;;;;;;;;;0.63;100.00;101704.91;106932;1271;25388;-54
2023/12/16 09:14:12;;;;;;;;;;;;;;;0.61;100.00;101703.94;109320;1271;22622;-46
2023/12/16 09:16:39;;;;;;;;;;;;;;;0.58;99.99;101704.94;107884;1268;23540;-47
2023/12/16 09:19:07;;;;;;;;;;;;;;;0.52;99.92;101701.38;108317;1268;22533;-48
2023/12/16 09:21:34;;;;;;;;;;;;;;;0.48;100.00;101696.60;108193;1268;22673;-53
2023/12/16 09:24:00;;;;;;;;;;;;;;;0.44;100.00;101693.45;107092;1270;26559;-48
2023/12/16 09:26:27;;;;;;;;;;;;;;;0.43;99.93;101695.45;107670;1271;22517;-55
2023/12/16 09:28:54;;;;;;;;;;;;;;;0.42;98.57;101693.68;107994;1262;22987;-48
2023/12/16 09:31:21;;;;;;;;;;;;;;;0.43;97.74;101693.87;107374;1268;25369;-47
2023/12/16 09:33:48;;;;;;;;;;;;;;;0.44;97.72;101685.20;107303;1280;23492;-48
2023/12/16 09:36:16;;;;;;;;;;;;;;;0.49;98.16;101685.19;107055;1274;22519;-54
2023/12/16 09:38:45;;;;;;;;;;;;;;;0.53;97.53;101677.00;107055;1271;26690;-54
2023/12/16 09:41:20;;;;;;;;;;;;;;;0.57;97.45;101674.11;106931;1270;25392;-51
2023/12/16 09:43:48;;;;;;;;;;;;;;;0.65;97.45;101668.98;107344;1271;24209;-54
2023/12/16 09:46:15;;;;;;;;;;;;;;;0.75;96.82;101672.00;107356;1280;22525;-48
2023/12/16 09:48:42;;;;;;;;;;;;;;;0.85;96.22;101665.58;109274;1271;22491;-54
2023/12/16 09:51:09;;;;;;;;;;;;;;;0.94;95.78;101662.51;109439;1269;22524;-48
2023/12/16 09:53:36;;;;;;;;;;;;;;;1.06;95.72;101660.48;107223;1268;22679;-55
2023/12/16 09:56:03;;;;;;;;;;;;;;;1.18;95.05;101663.80;107966;1268;22520;-54
2023/12/16 09:58:30;;;;;;;;;;;;;;;1.30;94.01;101664.84;107720;1268;22580;-48
2023/12/16 10:00:57;;;;;;;;;;;;;;;1.42;93.08;101659.50;107394;1275;22535;-47
2023/12/16 10:03:24;;;;;;;;;;;;;;;1.61;92.36;101654.41;107485;1274;25485;-48
2023/12/16 10:05:50;;;;;;;;;;;;;;;1.84;91.54;101649.56;106778;1268;23033;-55
2023/12/16 10:08:17;;;;;;;;;;;;;;;2.14;90.83;101641.59;108086;1277;22537;-48
2023/12/16 10:10:44;;;;;;;;;;;;;;;2.48;89.69;101641.71;107279;1274;25331;-46
2023/12/16 10:13:20;;;;;;;;;;;;;;;2.88;89.15;101641.29;107432;1271;23304;-55
2023/12/16 10:15:47;;;;;;;;;;;;;;;3.25;87.84;101644.39;107013;1268;26455;-48
2023/12/16 10:18:14;;;;;;;;;;;;;;;3.55;86.69;101641.05;106626;1271;22926;-54
2023/12/16 10:20:41;;;;;;;;;;;;;;;3.82;85.59;101634.14;107021;1272;22523;-49
2023/12/16 10:23:08;;;;;;;;;;;;;;;4.07;84.06;101625.96;107638;1271;22537;-55
2023/12/16 10:25:35;;;;;;;;;;;;;;;4.25;81.97;101625.13;107032;1271;22730;-53
2023/12/16 10:28:02;;;;;;;;;;;;;;;4.32;80.33;101617.84;106974;1274;22569;-47
2023/12/16 10:30:29;;;;;;;;;;;;;;;4.39;80.46;101616.60;107295;1263;25393;-55
2023/12/16 10:32:56;;;;;;;;;;;;;;;4.53;78.35;101614.29;106412;1264;295325;-48
2023/12/16 10:35:23;;;;;;;;;;;;;;;4.60;77.30;101619.64;107472;1270;23265;-47
2023/12/16 10:37:50;;;;;;;;;;;;;;;4.64;76.93;101623.44;107071;1271;22526;-47
2023/12/16 10:40:26;;;;;;;;;;;;;;;4.63;76.65;101622.02;106836;1268;22574;-55
2023/12/16 10:42:53;;;;;;;;;;;;;;;4.62;75.99;101621.28;108457;1282;22526;-45
2023/12/16 10:45:20;;;;;;;;;;;;;;;4.60;76.36;101622.06;107807;1263;22566;-55
2023/12/16 10:47:49;;;;;;;;;;;;;;;4.69;76.12;101614.16;107294;1274;22586;-46
2023/12/16 10:50:17;;;;;;;;;;;;;;;4.81;75.76;101617.97;108157;1273;22537;-54
2023/12/16 10:52:50;;;;;;;;;;;;;;;4.82;75.08;101614.55;107432;1272;22486;-53
2023/12/16 10:55:19;;;;;;;;;;;;;;;4.71;75.13;101610.80;107068;1271;22639;-47
2023/12/16 10:57:47;;;;;;;;;;;;;;;4.55;75.62;101604.19;107318;1273;22513;-46
2023/12/16 11:00:22;;;;;;;;;;;;;;;4.37;75.59;101608.75;107048;1271;24242;-47
2023/12/16 11:03:03;;;;;;;;;;;;;;;4.15;76.26;101604.08;107472;1268;25548;-48
2023/12/16 11:05:32;;;;;;;;;;;;;;;4.05;76.97;101602.39;109913;1270;22447;-52
2023/12/16 11:08:01;;;;;;;;;;;;;;;4.02;77.33;101597.09;109898;1272;23186;-47
2023/12/16 11:10:33;;;;;;;;;;;;;;;4.03;78.24;101600.05;109654;1270;22580;-54
2023/12/16 11:13:00;;;;;;;;;;;;;;;4.04;78.20;101599.09;109905;1270;23078;-47
2023/12/16 11:15:27;;;;;;;;;;;;;;;4.01;78.13;101602.58;109636;1282;22473;-54
2023/12/16 11:17:54;;;;;;;;;;;;;;;4.00;78.27;101608.91;109903;1282;22483;-54
2023/12/16 11:20:21;;;;;;;;;;;;;;;4.10;78.58;101602.98;109898;1282;23210;-47
2023/12/16 11:22:51;;;;;;;;;;;;;;;4.31;78.20;101601.58;109433;1282;22509;-46
2023/12/16 11:25:18;;;;;;;;;;;;;;;4.52;77.42;101602.15;109097;1282;22559;-55
2023/12/16 11:27:51;;;;;;;;;;;;;;;4.72;77.04;101604.10;108396;1274;24362;-48
2023/12/16 11:30:20;;;;;;;;;;;;;;;5.00;76.10;101601.02;108512;1280;22505;-55
2023/12/16 11:32:53;;;;;;;;;;;;;;;5.23;74.99;101601.14;108514;1274;23290;-54
2023/12/16 11:35:36;;;;;;;;;;;;;;;5.44;74.50;101590.91;107794;1271;25268;-49
2023/12/16 11:38:03;;;;;;;;;;;;;;;5.69;74.08;101596.28;107087;1282;23438;-49
2023/12/16 11:40:40;;;;;;;;;;;;;;;5.92;73.10;101593.05;107703;1273;22562;-47
2023/12/16 11:43:07;;;;;;;;;;;;;;;6.14;72.93;101594.62;107562;1278;22517;-48
2023/12/16 11:45:40;;;;;;;;;;;;;;;6.35;71.94;101601.14;107057;1272;24219;-49
2023/12/16 11:48:07;;;;;;;;;;;;;;;6.40;71.32;101598.36;107322;1270;25551;-56
2023/12/16 11:50:34;;;;;;;;;;;;;;;6.14;70.99;101597.90;106601;1271;24219;-54
2023/12/16 11:53:01;;;;;;;;;;;;;;;5.60;71.09;101598.33;107113;1268;23447;-50
2023/12/16 11:55:28;;;;;;;;;;;;;;;4.96;72.29;101601.53;107109;1274;26532;-55
2023/12/16 11:57:55;;;;;;;;;;;;;;;4.41;73.62;101602.88;108972;1274;23215;-46
2023/12/16 12:00:22;;;;;;;;;;;;;;;3.94;75.21;101606.91;109928;1271;23030;-53
2023/12/16 12:02:50;;;;;;;;;;;;;;;3.54;76.95;101599.12;109750;1270;22708;-47
2023/12/16 12:05:17;;;;;;;;;;;;;;;3.24;78.37;101595.86;109355;1271;22583;-49
2023/12/16 12:07:43;;;;;;;;;;;;;;;3.01;79.80;101597.29;109754;1281;23068;-47
2023/12/16 12:10:10;;;;;;;;;;;;;;;2.85;81.00;101599.79;108740;1282;22538;-48
2023/12/16 12:12:37;;;;;;;;;;;;;;;2.73;82.05;101599.14;108189;1271;22559;-53
2023/12/16 12:15:04;;;;;;;;;;;;;;;2.64;83.01;101600.23;108643;1268;22709;-54
2023/12/16 12:17:31;;;;;;;;;;;;;;;2.58;83.53;101595.45;108694;1268;22524;-47
2023/12/16 12:19:58;;;;;;;;;;;;;;;2.54;83.68;101599.16;108599;1280;23007;-47
2023/12/16 12:22:25;;;;;;;;;;;;;;;2.48;83.93;101600.23;109927;1277;22491;-47
